Terminal Aerodrome Forecast
Issued by NWS

Home | Current Version | Previous Version | Text Only | Print | Product List | Glossary On
Versions: 1 2 3 4 5 6 7 8 9 10 11 12 13 14 15 16 17 18 19 20
000
FTUS46 KMTR 011100
TAFOAK
TAF
KOAK 011128Z 0112/0218 VRB03KT P6SM SCT200
     FM011800 26005KT P6SM SCT150
     FM012100 29008KT P6SM SCT150
     FM020300 VRB03KT P6SM SCT200=

USA.gov is the U.S. government's official web portal to all federal, state and local government web resources and services.